Terminal Aerodrome Forecast
Issued by NWS

Home | Current Version | Previous Version | Graphics & Text | Print | Product List | Glossary On
Versions: 1 2 3 4 5 6 7 8 9 10 11 12 13 14 15 16
714
FTUS43 KGRB 190520
TAFAUW
TAF
KAUW 190520Z 1906/2006 27007KT P6SM BKN250
     FM191600 25009G17KT P6SM SCT250
     FM192200 19006KT P6SM SKC=

USA.gov is the U.S. government's official web portal to all federal, state and local government web resources and services.